Time;durP1;ratioP1;P1;durP2;ratioP2;P2;SDS_P1;SDS_P2;PMS_P1;PMS_P2;Temp;Humidity;BMP_temperature;BMP_pressure;BME280_temperature;BME280_humidity;BME280_pressure;Samples;Min_cycle;Max_cycle;Signal;HPM_P1;HPM_P2
2021/12/08 00:01:08;;;;;;;20.37;16.53;;;;;;;4.19;100.00;100234.22;1688256;84;21113;-86
2021/12/08 00:03:38;;;;;;;20.08;16.32;;;;;;;4.18;100.00;100224.00;1688593;84;21070;-84
2021/12/08 00:06:05;;;;;;;18.82;15.63;;;;;;;4.17;100.00;100216.70;1708439;84;21082;-85
2021/12/08 00:08:33;;;;;;;19.23;14.93;;;;;;;4.16;100.00;100234.84;1708622;84;21026;-85
2021/12/08 00:13:02;;;;;;;17.17;14.90;;;;;;;4.16;100.00;100238.70;1708426;84;21166;-85
2021/12/08 00:13:35;;;;;;;19.42;13.88;;;;;;;4.21;100.00;100227.67;1684491;84;21097;-85
2021/12/08 00:16:07;;;;;;;19.63;15.27;;;;;;;4.29;100.00;100229.38;1689255;84;21085;-85
2021/12/08 00:18:35;;;;;;;18.48;15.55;;;;;;;4.36;100.00;100227.30;1706066;84;21053;-85
2021/12/08 00:21:10;;;;;;;21.42;15.08;;;;;;;4.34;100.00;100233.00;1708763;84;21129;-85
2021/12/08 00:23:37;;;;;;;16.97;13.70;;;;;;;4.28;100.00;100234.63;1708451;84;21811;-86
2021/12/08 00:26:08;;;;;;;15.93;13.90;;;;;;;4.25;100.00;100229.19;1667675;84;21121;-83
2021/12/08 00:28:36;;;;;;;18.30;15.08;;;;;;;4.20;100.00;100228.15;1627450;86;21061;-84
2021/12/08 00:31:05;;;;;;;18.60;14.28;;;;;;;4.20;100.00;100233.30;1599741;88;21024;-84
2021/12/08 00:33:35;;;;;;;16.45;14.28;;;;;;;4.19;100.00;100226.95;1599507;88;21117;-84
2021/12/08 00:36:06;;;;;;;21.05;14.33;;;;;;;4.14;100.00;100227.64;1619264;88;21163;-84
2021/12/08 00:38:35;;;;;;;17.17;13.93;;;;;;;4.10;100.00;100224.41;1618932;87;21141;-84
2021/12/08 00:41:02;;;;;;;16.23;14.35;;;;;;;4.06;100.00;100228.08;1598800;88;21098;-84
2021/12/08 00:43:31;;;;;;;15.23;13.62;;;;;;;4.07;100.00;100225.41;1618912;88;21116;-84
2021/12/08 00:45:58;;;;;;;18.10;13.60;;;;;;;4.14;100.00;100232.36;1598616;88;21966;-84
2021/12/08 00:48:25;;;;;;;15.85;14.15;;;;;;;4.21;100.00;100236.70;1618848;87;21909;-86
2021/12/08 00:50:53;;;;;;;15.18;13.58;;;;;;;4.25;100.00;100228.72;1618853;88;21567;-86
2021/12/08 00:53:20;;;;;;;18.40;13.22;;;;;;;4.23;100.00;100227.14;1619231;88;21799;-85
2021/12/08 00:55:47;;;;;;;15.10;13.25;;;;;;;4.16;100.00;100224.53;1598847;88;21020;-84
2021/12/08 00:58:15;;;;;;;18.12;13.68;;;;;;;4.10;100.00;100217.52;1599339;88;21081;-86
2021/12/08 01:00:49;;;;;;;19.00;14.13;;;;;;;4.08;100.00;100223.67;1619050;88;20976;-84
2021/12/08 01:03:18;;;;;;;17.27;13.58;;;;;;;4.12;100.00;100229.50;1616155;88;21095;-85
2021/12/08 01:05:51;;;;;;;15.32;13.38;;;;;;;4.10;100.00;100240.71;1619052;87;21082;-85
2021/12/08 01:08:21;;;;;;;14.25;12.85;;;;;;;4.14;100.00;100250.84;1619285;88;21098;-85
2021/12/08 01:10:53;;;;;;;13.70;12.40;;;;;;;4.16;100.00;100258.03;1618916;88;21149;-85
2021/12/08 01:13:23;;;;;;;14.35;12.45;;;;;;;4.17;100.00;100246.81;1619136;88;21820;-84
2021/12/08 01:15:54;;;;;;;14.78;13.32;;;;;;;4.17;100.00;100244.23;1618945;88;21051;-85
2021/12/08 01:18:27;;;;;;;16.73;14.18;;;;;;;4.18;100.00;100246.72;1621326;87;21019;-84
2021/12/08 01:20:57;;;;;;;15.25;13.68;;;;;;;4.20;100.00;100250.53;1618979;87;21097;-85
2021/12/08 01:23:28;;;;;;;14.95;13.45;;;;;;;4.18;100.00;100240.75;1619264;88;21134;-84
2021/12/08 01:25:56;;;;;;;16.32;14.33;;;;;;;4.17;100.00;100232.17;1599141;88;21898;-84
2021/12/08 01:28:24;;;;;;;16.62;14.83;;;;;;;4.22;100.00;100240.94;1618911;88;21106;-85
2021/12/08 01:30:54;;;;;;;16.50;14.13;;;;;;;4.21;100.00;100236.70;1619200;87;21468;-84
2021/12/08 01:33:24;;;;;;;16.52;14.78;;;;;;;4.20;100.00;100236.35;1618921;88;21016;-85
2021/12/08 01:35:52;;;;;;;19.00;15.85;;;;;;;4.16;100.00;100236.98;1619070;88;21057;-85
2021/12/08 01:38:19;;;;;;;17.50;15.58;;;;;;;4.12;100.00;100229.50;1599119;88;21766;-85
2021/12/08 01:40:47;;;;;;;17.10;15.40;;;;;;;4.13;100.00;100235.84;1619072;87;21063;-85
2021/12/08 01:43:25;;;;;;;17.45;15.65;;;;;;;4.18;100.00;100233.02;1619256;88;21042;-85
2021/12/08 01:46:00;;;;;;;16.62;14.87;;;;;;;4.19;100.00;100232.11;1616193;88;21594;-85
2021/12/08 01:48:34;;;;;;;16.50;14.80;;;;;;;4.17;100.00;100225.73;1598972;88;21050;-84
2021/12/08 01:51:12;;;;;;;17.07;15.32;;;;;;;4.22;100.00;100225.48;1619002;88;21170;-84
2021/12/08 01:53:43;;;;;;;15.55;13.93;;;;;;;4.24;100.00;100222.37;1619027;87;21209;-84
2021/12/08 01:56:11;;;;;;;;;;;;;;;4.22;100.00;100228.91;1621531;88;21070;-84
2021/12/08 01:58:38;;;;;;;17.05;14.80;;;;;;;4.21;100.00;100224.66;1619236;87;20551;-84
2021/12/08 02:01:09;;;;;;;17.12;15.32;;;;;;;4.22;100.00;100213.87;1619334;88;21682;-85
2021/12/08 02:03:38;;;;;;;18.25;15.35;;;;;;;4.20;100.00;100209.29;1598456;88;21142;-86
2021/12/08 02:06:09;;;;;;;21.27;15.55;;;;;;;4.20;100.00;100204.14;1618952;88;21094;-86
2021/12/08 02:08:38;;;;;;;15.45;13.80;;;;;;;4.22;100.00;100212.16;1619412;88;21064;-86
2021/12/08 02:11:06;;;;;;;20.77;15.30;;;;;;;4.24;100.00;100215.48;1598797;88;21555;-86
2021/12/08 02:13:38;;;;;;;16.75;13.88;;;;;;;4.27;100.00;100217.05;1619524;88;21083;-85
2021/12/08 02:16:14;;;;;;;17.12;14.78;;;;;;;4.25;100.00;100226.14;1618933;87;21839;-85
2021/12/08 02:18:50;;;;;;;16.62;14.70;;;;;;;4.24;100.00;100221.08;1618924;88;21575;-86
2021/12/08 02:21:39;;;;;;;17.23;15.35;;;;;;;4.24;100.00;100229.66;1619002;87;21488;-85
2021/12/08 02:24:13;;;;;;;18.02;15.08;;;;;;;4.29;100.00;100225.52;1626638;87;21042;-84
2021/12/08 02:26:46;;;;;;;17.12;14.60;;;;;;;4.30;100.00;100220.73;1607658;87;21137;-85
2021/12/08 02:29:22;;;;;;;18.82;15.93;;;;;;;4.29;100.00;100220.83;1636043;87;21146;-85
2021/12/08 02:31:56;;;;;;;19.75;15.72;;;;;;;4.28;100.00;100217.44;1631684;87;21038;-84
2021/12/08 02:48:06;;;;;;;18.75;15.32;;;;;;;4.34;100.00;100192.59;1635452;87;21034;-84
2021/12/08 02:50:38;;;;;;;19.70;15.30;;;;;;;4.35;100.00;100191.69;1635393;87;21121;-84
2021/12/08 02:53:11;;;;;;;20.08;15.78;;;;;;;4.35;100.00;100192.97;1632506;87;21090;-84
2021/12/08 02:55:41;;;;;;;19.40;15.68;;;;;;;4.38;100.00;100197.94;1636051;87;21129;-84
2021/12/08 02:58:09;;;;;;;19.37;15.18;;;;;;;4.39;100.00;100206.05;1635635;87;21114;-85
2021/12/08 03:00:43;;;;;;;20.15;16.50;;;;;;;4.39;100.00;100209.92;1635392;87;21081;-85
2021/12/08 03:03:10;;;;;;;20.55;16.20;;;;;;;4.41;100.00;100211.11;1604378;87;21098;-85
2021/12/08 03:05:37;;;;;;;21.97;15.18;;;;;;;4.41;100.00;100207.24;1635879;87;21073;-85
2021/12/08 03:08:07;;;;;;;18.60;15.70;;;;;;;4.44;100.00;100199.82;1635514;87;21112;-85
2021/12/08 03:10:41;;;;;;;20.75;15.50;;;;;;;4.48;100.00;100190.98;1645352;86;21529;-85
2021/12/08 03:13:10;;;;;;;19.35;14.78;;;;;;;4.49;100.00;100185.73;1643538;85;21149;-85
2021/12/08 03:15:39;;;;;;;19.60;14.95;;;;;;;4.54;100.00;100175.16;1635712;87;21118;-85
2021/12/08 03:18:06;;;;;;;18.15;14.60;;;;;;;4.56;100.00;100177.20;1607917;87;21618;-86
2021/12/08 03:20:41;;;;;;;19.52;15.15;;;;;;;4.60;100.00;100181.28;1607791;87;21895;-86
2021/12/08 03:23:15;;;;;;;18.83;13.93;;;;;;;4.68;100.00;100173.94;1634484;87;21097;-86
2021/12/08 03:25:54;;;;;;;17.60;13.83;;;;;;;4.73;100.00;100178.80;1635667;86;21598;-86
2021/12/08 03:28:18;;;;;;;20.60;14.38;;;;;;;4.75;100.00;100176.97;1605378;87;21683;-85
2021/12/08 03:30:55;;;;;;;17.77;13.50;;;;;;;4.75;100.00;100174.39;1601573;88;21205;-85
2021/12/08 03:33:10;;;;;;;18.50;14.30;;;;;;;4.76;100.00;100174.77;1623024;88;21226;-86
2021/12/08 03:35:38;;;;;;;19.75;14.07;;;;;;;4.76;100.00;100176.05;1626882;88;21030;-85
2021/12/08 03:38:06;;;;;;;19.70;13.45;;;;;;;4.75;100.00;100180.84;1626503;88;21133;-85
2021/12/08 03:40:35;;;;;;;17.37;14.15;;;;;;;4.78;100.00;100175.95;1626760;88;21145;-86
2021/12/08 03:43:05;;;;;;;16.87;13.70;;;;;;;4.81;100.00;100165.47;1626871;88;21098;-85
2021/12/08 03:45:36;;;;;;;16.85;13.80;;;;;;;4.83;100.00;100168.80;1655849;85;21401;-85
2021/12/08 03:48:15;;;;;;;20.55;13.93;;;;;;;4.83;100.00;100163.16;1671398;85;21024;-85
2021/12/08 03:50:44;;;;;;;20.40;14.85;;;;;;;4.87;100.00;100171.55;1668432;85;21090;-86
2021/12/08 03:53:15;;;;;;;19.37;14.13;;;;;;;4.91;100.00;100171.77;1673759;85;21047;-85
2021/12/08 03:55:45;;;;;;;19.50;14.58;;;;;;;4.92;100.00;100164.39;1674396;85;26267;-84
2021/12/08 03:58:14;;;;;;;18.93;14.47;;;;;;;4.92;100.00;100166.98;1683031;84;21198;-84
2021/12/08 04:00:45;;;;;;;20.43;14.83;;;;;;;4.90;100.00;100163.17;1692495;83;21595;-84
2021/12/08 04:03:12;;;;;;;19.00;13.62;;;;;;;4.90;100.00;100150.75;1711774;83;21618;-85
2021/12/08 04:05:51;;;;;;;16.65;12.85;;;;;;;4.91;100.00;100158.86;1669432;83;21206;-84
2021/12/08 04:08:28;;;;;;;22.05;13.55;;;;;;;4.96;100.00;100163.28;1615575;87;21101;-83
2021/12/08 04:10:51;;;;;;;21.30;14.30;;;;;;;5.00;100.00;100159.62;1615170;87;21166;-82
2021/12/08 04:13:23;;;;;;;105.00;18.42;;;;;;;5.18;100.00;100167.16;1670796;83;21024;-82
2021/12/08 04:15:51;;;;;;;83.40;17.77;;;;;;;5.33;100.00;100164.95;1712974;83;20996;-83
2021/12/08 04:18:18;;;;;;;60.17;15.68;;;;;;;5.58;100.00;100167.33;1710630;83;21137;-84
2021/12/08 04:20:51;;;;;;;37.63;15.55;;;;;;;5.88;100.00;100168.96;1682991;85;21864;-83
2021/12/08 04:23:23;;;;;;;26.12;16.07;;;;;;;6.04;100.00;100171.91;1683135;85;21155;-83
2021/12/08 04:25:54;;;;;;;22.22;15.88;;;;;;;6.21;100.00;100170.34;1682897;85;20998;-82
2021/12/08 04:28:27;;;;;;;20.27;15.10;;;;;;;6.33;100.00;100179.55;1669979;85;21020;-82
2021/12/08 04:31:02;;;;;;;18.75;14.95;;;;;;;6.31;100.00;100175.30;1657622;84;21124;-84
2021/12/08 04:33:31;;;;;;;19.20;14.38;;;;;;;6.19;100.00;100174.80;1676062;83;21401;-82
2021/12/08 04:35:59;;;;;;;24.32;15.80;;;;;;;6.12;100.00;100177.42;1704129;83;21262;-83
2021/12/08 04:38:35;;;;;;;26.60;16.82;;;;;;;6.18;100.00;100174.88;1701286;83;21038;-84
2021/12/08 04:41:07;;;;;;;49.20;16.93;;;;;;;6.20;100.00;100171.74;1666852;85;21157;-83
2021/12/08 04:43:57;;;;;;;25.72;15.80;;;;;;;6.21;100.00;100169.05;1644663;84;21054;-84
2021/12/08 05:03:23;;;;;;;38.50;16.23;;;;;;;6.23;100.00;100143.94;1678235;84;21868;-87
2021/12/08 05:08:23;;;;;;;28.77;14.55;;;;;;;6.20;100.00;100144.15;1693532;83;21108;-87
2021/12/08 05:10:51;;;;;;;25.43;15.88;;;;;;;6.22;100.00;100141.45;1690817;83;21101;-90
2021/12/08 05:13:21;;;;;;;25.52;15.40;;;;;;;6.23;100.00;100143.11;1677096;84;21083;-86
2021/12/08 05:15:56;;;;;;;18.50;14.87;;;;;;;6.20;100.00;100145.44;1678718;85;21032;-87
2021/12/08 05:18:28;;;;;;;23.20;15.40;;;;;;;6.27;100.00;100138.09;1677948;83;21062;-88
2021/12/08 05:21:04;;;;;;;20.48;14.50;;;;;;;6.25;100.00;100133.03;1677066;85;21651;-85
2021/12/08 05:23:46;;;;;;;29.37;14.68;;;;;;;6.20;100.00;100135.10;1657718;85;21501;-87
2021/12/08 05:26:33;;;;;;;20.30;15.35;;;;;;;6.14;100.00;100140.20;1676533;84;21084;-87
2021/12/08 05:29:09;;;;;;;28.12;15.55;;;;;;;6.20;100.00;100144.15;1696389;83;21174;-88
2021/12/08 05:31:37;;;;;;;37.33;17.75;;;;;;;6.22;100.00;100146.63;1704029;83;21562;-88
2021/12/08 05:34:06;;;;;;;24.77;16.15;;;;;;;6.19;100.00;100151.98;1696472;83;21049;-86
2021/12/08 05:36:37;;;;;;;19.73;15.68;;;;;;;6.25;100.00;100155.02;1688869;83;20980;-88
2021/12/08 05:39:12;;;;;;;24.98;15.03;;;;;;;6.27;100.00;100137.66;1648016;84;21079;-86
2021/12/08 05:41:42;;;;;;;19.07;15.78;;;;;;;6.30;100.00;100143.90;1621731;86;21210;-86
2021/12/08 05:44:11;;;;;;;21.00;15.13;;;;;;;6.32;100.00;100137.36;1647360;86;21078;-87
2021/12/08 05:46:42;;;;;;;21.25;17.20;;;;;;;6.26;100.00;100135.98;1623991;87;21555;-86
2021/12/08 05:49:13;;;;;;;20.12;15.35;;;;;;;6.28;100.00;100132.84;1632303;86;21607;-86
2021/12/08 05:51:43;;;;;;;22.37;15.20;;;;;;;6.30;100.00;100140.02;1631604;86;21619;-87
2021/12/08 05:54:15;;;;;;;21.33;16.17;;;;;;;6.30;100.00;100137.44;1632429;86;21781;-87
2021/12/08 05:56:44;;;;;;;20.40;15.80;;;;;;;6.29;100.00;100149.99;1638035;86;21595;-87
2021/12/08 05:59:14;;;;;;;27.10;16.20;;;;;;;6.23;100.00;100143.94;1643117;86;21461;-85
2021/12/08 06:01:51;;;;;;;19.45;15.72;;;;;;;6.17;100.00;100140.94;1640239;85;21063;-85
2021/12/08 06:04:20;;;;;;;20.50;14.95;;;;;;;6.17;100.00;100132.70;1635084;85;21590;-84
2021/12/08 06:06:48;;;;;;;21.02;15.80;;;;;;;6.17;100.00;100121.06;1615977;87;21175;-88
2021/12/08 06:17:49;;;;;;;20.72;15.53;;;;;;;6.28;100.00;100128.13;1863996;74;22619;-83
2021/12/08 06:20:17;;;;;;;18.55;15.38;;;;;;;6.19;100.00;100134.73;1832594;77;20960;-83
2021/12/08 06:22:48;;;;;;;21.10;16.40;;;;;;;6.13;100.00;100149.32;1845435;75;21155;-84
2021/12/08 06:25:17;;;;;;;23.30;15.88;;;;;;;6.08;100.00;100159.98;1830194;77;20866;-84
2021/12/08 06:27:45;;;;;;;22.17;16.97;;;;;;;6.07;100.00;100160.91;1824986;78;21060;-84
2021/12/08 06:30:17;;;;;;;21.10;16.48;;;;;;;6.07;100.00;100169.11;1825176;78;21043;-84
2021/12/08 06:32:45;;;;;;;19.12;16.50;;;;;;;6.09;100.00;100165.97;1845892;75;21101;-84
2021/12/08 06:35:17;;;;;;;20.88;16.15;;;;;;;6.13;100.00;100167.42;1894279;75;21107;-84
2021/12/08 06:37:45;;;;;;;21.33;17.12;;;;;;;6.19;100.00;100173.95;1886630;75;21705;-85
2021/12/08 06:40:32;;;;;;;19.98;16.87;;;;;;;6.28;100.00;100175.96;1860894;75;21006;-85
2021/12/08 06:43:06;;;;;;;20.55;16.35;;;;;;;6.32;100.00;100172.27;1853368;76;21045;-85
2021/12/08 06:45:37;;;;;;;22.50;16.62;;;;;;;6.28;100.00;100176.81;1818319;76;21638;-85
2021/12/08 06:48:11;;;;;;;19.62;16.25;;;;;;;6.27;100.00;100162.66;1848824;76;21013;-89
2021/12/08 06:50:47;;;;;;;19.32;16.75;;;;;;;6.35;100.00;100149.25;1856096;75;21053;-85
2021/12/08 06:53:14;;;;;;;20.70;16.73;;;;;;;6.37;100.00;100149.52;1823912;77;20997;-85
2021/12/08 06:55:49;;;;;;;21.93;16.45;;;;;;;6.41;100.00;100147.08;1855796;75;21203;-86
2021/12/08 06:58:21;;;;;;;22.32;16.42;;;;;;;6.40;100.00;100152.36;1848312;75;21031;-85
2021/12/08 07:01:21;;;;;;;21.23;15.30;;;;;;;6.44;100.00;100161.11;1846585;75;21799;-85
2021/12/08 07:09:17;;;;;;;24.47;16.85;;;;;;;6.53;100.00;100151.91;1851482;76;21472;-85
2021/12/08 07:11:45;;;;;;;20.02;16.02;;;;;;;6.56;100.00;100151.72;1818064;77;21058;-85
2021/12/08 07:14:12;;;;;;;19.73;16.62;;;;;;;6.58;100.00;100148.58;1800859;78;21109;-86
2021/12/08 07:16:44;;;;;;;19.67;16.30;;;;;;;6.59;100.00;100142.48;1820365;78;20996;-84
2021/12/08 07:19:27;;;;;;;20.05;15.85;;;;;;;6.62;100.00;100145.32;1816091;76;21082;-85
2021/12/08 07:21:53;;;;;;;21.35;16.73;;;;;;;6.63;100.00;100150.38;1835545;76;21546;-87
2021/12/08 07:24:26;;;;;;;19.48;15.88;;;;;;;6.66;100.00;100145.47;1836229;76;20997;-86
2021/12/08 07:27:07;;;;;;;26.10;16.27;;;;;;;6.65;100.00;100166.28;1826549;76;21856;-85
2021/12/08 07:29:39;;;;;;;19.70;15.53;;;;;;;6.65;100.00;100163.21;1877488;76;21004;-84
2021/12/08 07:32:12;;;;;;;20.85;16.23;;;;;;;6.69;100.00;100163.39;1875205;76;21160;-85
2021/12/08 07:34:39;;;;;;;21.45;15.68;;;;;;;6.67;100.00;100165.72;1764696;78;21826;-88
2021/12/08 07:37:14;;;;;;;20.75;15.65;;;;;;;6.65;100.00;100161.10;1785078;78;21035;-89
2021/12/08 07:39:46;;;;;;;20.12;15.50;;;;;;;6.63;100.00;100159.92;1812596;78;21174;-86
2021/12/08 07:42:40;;;;;;;19.92;16.17;;;;;;;6.65;100.00;100164.98;1782684;78;21037;-85
2021/12/08 07:45:13;;;;;;;18.80;15.72;;;;;;;6.69;100.00;100157.40;1743286;79;21047;-85
2021/12/08 07:47:41;;;;;;;20.85;16.70;;;;;;;6.72;100.00;100151.55;1733828;80;21036;-84
2021/12/08 07:50:38;;;;;;;17.00;14.35;;;;;;;6.74;100.00;100157.43;1755678;80;21089;-85
2021/12/08 07:53:10;;;;;;;16.70;14.63;;;;;;;6.80;100.00;100154.91;1773005;78;21573;-84
2021/12/08 07:55:42;;;;;;;19.10;15.45;;;;;;;6.82;100.00;100153.05;1781875;78;21558;-84
2021/12/08 07:58:12;;;;;;;19.17;15.35;;;;;;;6.85;100.00;100148.95;1773910;80;21047;-85
2021/12/08 08:00:54;;;;;;;17.80;14.63;;;;;;;6.87;100.00;100142.40;1791624;78;21076;-84
2021/12/08 08:03:24;;;;;;;19.45;14.53;;;;;;;6.91;100.00;100137.36;1792403;78;21103;-86
2021/12/08 08:05:54;;;;;;;16.85;14.70;;;;;;;6.99;100.00;100142.03;1764540;80;21060;-85
2021/12/08 08:08:25;;;;;;;16.65;14.80;;;;;;;7.04;100.00;100125.71;1766596;80;21032;-84
2021/12/08 08:10:59;;;;;;;17.85;15.10;;;;;;;7.03;100.00;100128.78;1784701;78;21519;-86
2021/12/08 08:13:30;;;;;;;16.93;14.10;;;;;;;7.04;100.00;100124.42;1776447;78;21037;-84
2021/12/08 08:16:05;;;;;;;19.15;13.05;;;;;;;7.06;100.00;100107.84;1792032;78;21004;-88
2021/12/08 08:18:37;;;;;;;15.63;12.95;;;;;;;7.05;100.00;100118.31;1780722;78;21001;-85
2021/12/08 08:21:10;;;;;;;15.32;12.00;;;;;;;7.05;100.00;100114.42;1740954;81;21060;-84
2021/12/08 08:23:37;;;;;;;16.30;12.78;;;;;;;7.03;100.00;100105.93;1751121;81;20949;-83
2021/12/08 08:26:09;;;;;;;15.50;12.73;;;;;;;7.00;100.00;100097.91;1755320;78;21012;-94
2021/12/08 08:28:38;;;;;;;15.98;12.82;;;;;;;7.04;100.00;100098.08;1776777;80;22384;-83
2021/12/08 08:31:14;;;;;;;13.10;11.35;;;;;;;7.09;100.00;100097.77;1780797;79;21209;-82
2021/12/08 08:33:43;;;;;;;17.45;13.10;;;;;;;7.14;100.00;100083.18;1777722;79;21117;-83
2021/12/08 08:36:15;;;;;;;14.25;12.10;;;;;;;7.18;100.00;100078.98;1807296;77;21079;-81
2021/12/08 08:38:50;;;;;;;20.80;11.68;;;;;;;7.22;100.00;100076.55;1779565;79;21160;-83
2021/12/08 08:41:23;;;;;;;16.40;12.50;;;;;;;7.28;100.00;100074.45;1789108;78;21024;-82
2021/12/08 08:43:54;;;;;;;18.37;12.58;;;;;;;7.37;100.00;100077.70;1811256;79;21079;-83
2021/12/08 08:46:32;;;;;;;17.10;12.80;;;;;;;7.46;100.00;100071.03;1769310;79;21035;-84
2021/12/08 08:49:04;;;;;;;15.48;12.37;;;;;;;7.53;100.00;100080.87;1778377;79;21010;-83
2021/12/08 08:51:59;;;;;;;15.38;12.03;;;;;;;7.63;100.00;100078.92;1778834;80;21090;-83
2021/12/08 08:54:24;;;;;;;16.97;11.68;;;;;;;7.66;100.00;100077.39;1780629;79;21520;-83
2021/12/08 08:57:00;;;;;;;15.15;12.15;;;;;;;7.65;100.00;100067.51;1778694;78;21192;-81
2021/12/08 08:59:40;;;;;;;15.28;11.85;;;;;;;7.62;100.00;100061.72;1810326;78;20991;-82
2021/12/08 09:02:08;;;;;;;13.78;10.82;;;;;;;7.64;100.00;100067.14;1801344;79;20999;-80
2021/12/08 09:04:48;;;;;;;13.72;11.38;;;;;;;7.67;100.00;100053.14;1810749;78;21599;-84
2021/12/08 09:07:23;;;;;;;16.62;11.65;;;;;;;7.65;100.00;100056.33;1781190;79;21069;-82
2021/12/08 09:09:55;;;;;;;17.55;11.03;;;;;;;7.62;100.00;100057.83;1800523;79;21137;-84
2021/12/08 09:12:35;;;;;;;13.65;10.68;;;;;;;7.63;100.00;100056.90;1805650;77;21058;-83
2021/12/08 09:15:16;;;;;;;18.62;10.55;;;;;;;7.66;100.00;100042.41;1757863;79;21003;-81
2021/12/08 09:17:54;;;;;;;12.53;10.13;;;;;;;7.68;100.00;100053.50;1807412;78;21035;-82
2021/12/08 09:20:36;;;;;;;14.70;10.58;;;;;;;7.71;100.00;100045.03;1809819;77;21125;-88
2021/12/08 09:23:08;;;;;;;14.98;10.53;;;;;;;7.74;100.00;100043.98;1810600;78;21821;-82
2021/12/08 09:25:44;;;;;;;13.85;10.78;;;;;;;7.76;100.00;100053.77;1813670;78;21017;-84
2021/12/08 09:28:24;;;;;;;14.23;10.78;;;;;;;7.77;100.00;100058.50;1775766;80;21626;-81
2021/12/08 09:30:58;;;;;;;14.05;11.40;;;;;;;7.74;100.00;100054.34;1748811;77;21124;-85
2021/12/08 09:33:31;;;;;;;14.07;10.68;;;;;;;7.72;100.00;100047.17;1847243;77;21042;-82
2021/12/08 09:36:03;;;;;;;13.80;10.98;;;;;;;7.75;100.00;100052.11;1851431;77;21792;-82
2021/12/08 09:38:37;;;;;;;13.98;10.48;;;;;;;7.77;100.00;100041.17;1841963;76;21092;-81
2021/12/08 09:41:27;;;;;;;16.27;11.15;;;;;;;7.76;100.00;100040.81;1783272;79;21050;-82
2021/12/08 09:44:05;;;;;;;13.15;10.85;;;;;;;7.76;100.00;100040.00;1784559;78;21087;-83
2021/12/08 09:46:43;;;;;;;14.38;11.10;;;;;;;7.76;100.00;100040.81;1774658;80;21014;-82
2021/12/08 09:49:16;;;;;;;17.80;11.60;;;;;;;7.77;100.00;100058.50;1779580;78;21893;-83
2021/12/08 09:51:45;;;;;;;16.80;11.12;;;;;;;7.81;100.00;100056.84;1757019;80;21045;-82
2021/12/08 09:54:13;;;;;;;14.18;10.72;;;;;;;7.85;100.00;100051.00;1786589;80;21617;-82
2021/12/08 09:56:40;;;;;;;12.88;10.53;;;;;;;7.86;100.00;100055.22;1786364;80;21539;-83
2021/12/08 09:59:09;;;;;;;14.13;9.83;;;;;;;7.88;100.00;100056.79;1786619;80;21029;-82
2021/12/08 10:01:40;;;;;;;14.73;11.65;;;;;;;7.95;100.00;100064.11;1786555;80;21161;-82
2021/12/08 10:04:07;;;;;;;14.18;10.68;;;;;;;8.00;100.00;100069.78;1786399;79;21020;-87
2021/12/08 10:06:39;;;;;;;23.40;11.05;;;;;;;8.06;100.00;100069.32;1786662;80;21697;-84
2021/12/08 10:09:08;;;;;;;15.85;11.95;;;;;;;8.06;100.00;100068.02;1786856;79;21056;-83
2021/12/08 10:11:35;;;;;;;17.15;11.38;;;;;;;8.09;100.00;100065.22;1779544;78;20964;-82
2021/12/08 10:14:03;;;;;;;15.40;11.50;;;;;;;8.12;100.00;100055.93;1766530;80;21214;-83
2021/12/08 10:16:32;;;;;;;16.62;11.88;;;;;;;8.15;100.00;100057.46;1777820;80;20970;-82
2021/12/08 10:18:59;;;;;;;15.13;11.43;;;;;;;8.15;100.00;100054.39;1764344;79;21027;-84
2021/12/08 10:21:39;;;;;;;37.13;11.12;;;;;;;8.17;100.00;100048.62;1782218;79;21021;-83
2021/12/08 10:24:25;;;;;;;27.05;12.63;;;;;;;8.25;100.00;100051.95;1732820;79;21060;-82
2021/12/08 10:27:05;;;;;;;14.30;11.03;;;;;;;8.35;100.00;100058.58;1763524;80;21539;-82
2021/12/08 10:29:34;;;;;;;31.40;12.80;;;;;;;8.46;100.00;100056.47;1788788;80;21021;-83
2021/12/08 10:32:07;;;;;;;29.23;11.80;;;;;;;8.44;100.00;100039.73;1787436;80;21570;-87
2021/12/08 10:34:52;;;;;;;20.82;11.60;;;;;;;8.48;100.00;100027.38;1790611;80;21107;-84
2021/12/08 10:37:12;;;;;;;23.07;15.60;;;;;;;8.50;100.00;100028.91;1786718;80;21009;-82
2021/12/08 10:39:47;;;;;;;29.12;17.62;;;;;;;8.57;100.00;100029.73;1786863;80;21153;-82
2021/12/08 10:42:31;;;;;;;25.90;16.42;;;;;;;8.57;100.00;100029.73;1763094;78;21030;-85
2021/12/08 10:45:13;;;;;;;26.02;15.70;;;;;;;8.63;100.00;100020.17;1789144;78;20982;-82
2021/12/08 10:47:51;;;;;;;22.77;16.90;;;;;;;8.63;100.00;100021.02;1761824;80;20998;-84
2021/12/08 10:56:12;;;;;;;22.13;15.40;;;;;;;8.57;100.00;100012.87;1790067;78;21021;-82
2021/12/08 10:58:43;;;;;;;19.80;14.20;;;;;;;8.53;100.00;100010.98;1759805;80;21083;-82
2021/12/08 11:01:19;;;;;;;21.80;15.00;;;;;;;8.51;100.00;100014.16;1759632;80;21602;-83
2021/12/08 11:03:49;;;;;;;25.77;15.50;;;;;;;8.50;100.00;100017.23;1777382;78;21027;-82
2021/12/08 11:06:17;;;;;;;23.32;15.20;;;;;;;8.53;100.00;100015.69;1752786;80;21199;-82
2021/12/08 11:08:51;;;;;;;25.95;16.10;;;;;;;8.58;100.00;100008.84;1788687;78;21523;-84
2021/12/08 11:11:30;;;;;;;21.02;15.23;;;;;;;8.51;100.00;100013.70;1746412;78;21095;-88
2021/12/08 11:14:01;;;;;;;19.02;13.95;;;;;;;8.49;100.00;100012.17;1784812;78;21053;-83
2021/12/08 11:16:34;;;;;;;18.12;13.13;;;;;;;8.48;100.00;100007.92;1763680;80;21456;-83
2021/12/08 11:19:21;;;;;;;20.37;15.18;;;;;;;8.50;100.00;100011.20;1790821;79;21602;-83
2021/12/08 11:21:54;;;;;;;20.77;15.70;;;;;;;8.53;100.00;100001.90;1761059;80;21073;-87
2021/12/08 11:24:35;;;;;;;22.17;15.85;;;;;;;8.49;100.00;99997.41;1790583;80;21014;-83
2021/12/08 11:27:07;;;;;;;18.00;14.93;;;;;;;8.45;100.00;99997.25;1790941;80;21033;-84
2021/12/08 11:29:42;;;;;;;14.90;11.85;;;;;;;8.41;100.00;99997.62;1790775;80;20997;-84
2021/12/08 11:32:18;;;;;;;13.38;10.68;;;;;;;8.42;100.00;99996.20;1790641;79;21161;-84
2021/12/08 11:34:47;;;;;;;14.07;9.90;;;;;;;8.37;100.00;99988.77;1787038;80;21091;-84
2021/12/08 11:37:24;;;;;;;13.55;10.30;;;;;;;8.34;100.00;99986.88;1787714;80;21034;-83
2021/12/08 11:39:57;;;;;;;14.95;11.12;;;;;;;8.32;100.00;99989.59;1764380;80;21021;-84
2021/12/08 11:42:32;;;;;;;15.38;12.63;;;;;;;8.32;100.00;99986.16;1791168;80;21017;-82
2021/12/08 11:45:01;;;;;;;23.10;13.60;;;;;;;8.31;100.00;99984.50;1790471;80;21075;-83
2021/12/08 11:47:33;;;;;;;18.77;14.45;;;;;;;8.29;100.00;99978.14;1787669;80;21132;-84
2021/12/08 11:50:10;;;;;;;22.35;14.85;;;;;;;8.27;100.00;99972.23;1761459;80;21092;-82
2021/12/08 11:52:39;;;;;;;20.95;14.55;;;;;;;8.25;100.00;99962.92;1790939;80;21084;-84
2021/12/08 11:55:13;;;;;;;23.47;16.10;;;;;;;8.20;100.00;99965.41;1790780;80;21527;-85
2021/12/08 11:57:46;;;;;;;36.38;23.47;;;;;;;8.19;100.00;99966.34;1760462;80;21139;-83
2021/12/08 12:00:34;;;;;;;35.43;29.02;;;;;;;8.18;100.00;99969.87;1791431;80;20982;-82
2021/12/08 12:03:08;;;;;;;31.37;24.35;;;;;;;8.15;100.00;99965.39;1791357;80;21104;-83
2021/12/08 12:05:50;;;;;;;31.45;22.85;;;;;;;8.15;100.00;99975.77;1791865;80;21279;-82
2021/12/08 12:08:22;;;;;;;22.85;17.65;;;;;;;8.17;100.00;99978.59;1791212;80;21053;-82
2021/12/08 12:10:56;;;;;;;25.10;16.95;;;;;;;8.18;100.00;99970.34;1791613;80;21135;-83
2021/12/08 12:13:23;;;;;;;22.25;16.55;;;;;;;8.17;100.00;99973.41;1790629;80;21072;-83
2021/12/08 12:15:50;;;;;;;20.90;16.37;;;;;;;8.19;100.00;99984.95;1791366;80;21065;-84
2021/12/08 12:18:21;;;;;;;20.97;15.93;;;;;;;8.20;100.00;99988.75;1765041;79;20945;-83
2021/12/08 12:21:00;;;;;;;19.67;16.80;;;;;;;8.18;100.00;99993.22;1797961;79;21036;-83
2021/12/08 12:24:04;;;;;;;20.60;16.82;;;;;;;8.21;100.00;100002.05;1794913;79;21841;-84
2021/12/08 12:27:01;;;;;;;25.95;18.00;;;;;;;8.24;100.00;100002.77;1766188;79;21099;-83